createdAt,value
2019-01-04T00:00:32.692Z,16.00
2019-01-04T00:03:03.807Z,16.33
2019-01-04T00:05:34.918Z,19.13
2019-01-04T00:08:05.867Z,16.80
2019-01-04T00:10:37.211Z,24.03
2019-01-04T00:13:08.112Z,20.63
2019-01-04T00:15:39.194Z,19.27
2019-01-04T00:18:10.163Z,20.90
2019-01-04T00:20:41.124Z,23.50
2019-01-04T00:23:12.130Z,19.90
2019-01-04T00:25:43.124Z,22.93
2019-01-04T00:28:14.247Z,19.30
2019-01-04T00:30:45.346Z,23.60
2019-01-04T00:33:16.502Z,22.53
2019-01-04T00:35:47.540Z,20.43
2019-01-04T00:38:18.615Z,18.60
2019-01-04T00:40:49.758Z,21.37
2019-01-04T00:43:20.824Z,21.83
2019-01-04T00:45:52.019Z,19.83
2019-01-04T00:48:23.066Z,20.70
2019-01-04T00:50:54.210Z,21.40
2019-01-04T00:53:25.251Z,20.23
2019-01-04T00:56:02.029Z,20.57
2019-01-04T00:58:44.535Z,25.53
2019-01-04T01:01:46.044Z,22.00
2019-01-04T01:04:46.932Z,24.70
2019-01-04T01:07:38.968Z,24.87
2019-01-04T01:10:31.943Z,24.43
2019-01-04T01:13:08.808Z,21.50
2019-01-04T01:16:15.892Z,23.60
2019-01-04T01:19:04.773Z,20.10
2019-01-04T01:22:13.485Z,22.93
2019-01-04T01:25:15.797Z,24.47
2019-01-04T01:28:20.015Z,21.53
2019-01-04T01:31:27.039Z,24.20
2019-01-04T01:34:00.978Z,22.80
2019-01-04T01:36:40.769Z,23.53
2019-01-04T01:39:37.197Z,21.80
2019-01-04T01:42:23.206Z,22.03
2019-01-04T01:45:22.397Z,21.13
2019-01-04T01:47:53.287Z,21.70
2019-01-04T01:50:27.226Z,23.97
2019-01-04T01:52:58.227Z,19.70
2019-01-04T01:55:29.110Z,26.83
2019-01-04T01:58:00.175Z,23.73
2019-01-04T02:00:31.271Z,25.83
2019-01-04T02:03:02.208Z,25.63
2019-01-04T02:05:38.136Z,26.50
2019-01-04T02:08:09.223Z,24.20
2019-01-04T02:10:40.224Z,25.37
2019-01-04T02:13:11.148Z,27.10
2019-01-04T02:15:42.180Z,24.13
2019-01-04T02:18:13.272Z,25.90
2019-01-04T02:20:44.260Z,21.77
2019-01-04T02:23:15.199Z,23.70
2019-01-04T02:25:46.300Z,24.17
2019-01-04T02:28:17.299Z,22.27
2019-01-04T02:30:48.258Z,25.67
2019-01-04T02:33:19.248Z,24.60
2019-01-04T02:35:50.231Z,22.50
2019-01-04T02:38:21.135Z,24.17
2019-01-04T02:40:52.201Z,19.33
2019-01-04T02:43:23.104Z,24.97
2019-01-04T02:45:55.789Z,24.73
2019-01-04T02:48:26.700Z,23.13
2019-01-04T02:50:57.846Z,25.40
2019-01-04T02:53:28.779Z,25.30
2019-01-04T02:55:59.752Z,25.23
2019-01-04T02:58:30.722Z,23.37
2019-01-04T03:01:01.594Z,22.63
2019-01-04T03:03:32.821Z,21.23
2019-01-04T03:06:06.776Z,22.60
2019-01-04T03:08:37.778Z,21.27
2019-01-04T03:11:08.898Z,23.87
2019-01-04T03:13:39.880Z,22.70
2019-01-04T03:16:10.763Z,21.40
2019-01-04T03:18:41.892Z,23.07
2019-01-04T03:21:12.798Z,19.60
2019-01-04T03:23:43.730Z,24.27
2019-01-04T03:26:14.772Z,23.07
2019-01-04T03:28:45.779Z,20.53
2019-01-04T03:31:16.763Z,23.83
2019-01-04T03:33:47.750Z,20.27
2019-01-04T03:36:18.931Z,21.47
2019-01-04T03:38:49.889Z,20.70
2019-01-04T03:41:21.073Z,25.00
2019-01-04T03:43:51.994Z,26.77
2019-01-04T03:46:26.745Z,22.17
2019-01-04T03:48:57.657Z,21.97
2019-01-04T03:51:28.730Z,26.43
2019-01-04T03:53:59.631Z,23.00
2019-01-04T03:56:30.786Z,21.20
2019-01-04T03:59:01.694Z,22.10
2019-01-04T04:01:32.737Z,24.10
2019-01-04T04:04:03.712Z,20.43
2019-01-04T04:06:34.701Z,20.77
2019-01-04T04:09:06.718Z,22.53
2019-01-04T04:11:37.601Z,21.47
2019-01-04T04:14:08.643Z,18.87
2019-01-04T04:16:39.597Z,20.70
2019-01-04T04:19:10.577Z,21.33
2019-01-04T04:21:41.511Z,20.23
2019-01-04T04:24:12.476Z,19.40
2019-01-04T04:26:43.423Z,20.93
2019-01-04T04:29:14.443Z,18.83
2019-01-04T04:31:45.511Z,20.47
2019-01-04T04:34:16.527Z,18.20
2019-01-04T04:36:53.266Z,18.23
2019-01-04T04:39:24.178Z,19.60
2019-01-04T04:41:55.084Z,18.23
2019-01-04T04:44:29.503Z,19.63
2019-01-04T04:47:00.477Z,20.17
2019-01-04T04:49:31.403Z,22.80
2019-01-04T04:52:02.377Z,18.37
2019-01-04T04:54:33.300Z,16.20
2019-01-04T04:57:04.401Z,20.20
2019-01-04T04:59:35.375Z,21.70
2019-01-04T05:02:06.422Z,17.57
2019-01-04T05:04:37.453Z,15.93
2019-01-04T05:07:08.435Z,20.97
2019-01-04T05:09:39.409Z,18.80
2019-01-04T05:12:10.445Z,16.80
2019-01-04T05:14:41.489Z,19.33
2019-01-04T05:17:12.491Z,19.33
2019-01-04T05:19:43.593Z,20.77
2019-01-04T05:22:14.657Z,18.50
2019-01-04T05:24:45.580Z,21.23
2019-01-04T05:27:22.693Z,16.63
2019-01-04T05:29:54.301Z,17.70
2019-01-04T05:32:25.295Z,20.27
2019-01-04T05:34:56.373Z,19.07
2019-01-04T05:37:27.353Z,22.57
2019-01-04T05:39:58.287Z,17.87
2019-01-04T05:42:29.177Z,16.00
2019-01-04T05:45:00.213Z,20.03
2019-01-04T05:47:31.271Z,20.07
2019-01-04T05:50:02.227Z,18.90
2019-01-04T05:52:33.257Z,20.63
2019-01-04T05:55:04.698Z,19.73
2019-01-04T05:57:37.485Z,18.80
2019-01-04T06:00:10.507Z,20.43
2019-01-04T06:02:41.477Z,20.47
2019-01-04T06:05:12.454Z,22.83
2019-01-04T06:07:43.423Z,24.53
2019-01-04T06:10:14.325Z,21.73
2019-01-04T06:12:45.361Z,21.97
2019-01-04T06:15:16.340Z,21.67
2019-01-04T06:17:47.342Z,18.63
2019-01-04T06:20:18.372Z,22.17
2019-01-04T06:22:49.840Z,22.43
2019-01-04T06:25:20.878Z,18.17
2019-01-04T06:27:51.827Z,23.03
2019-01-04T06:30:22.905Z,22.73
2019-01-04T06:32:53.811Z,22.03
2019-01-04T06:35:24.684Z,20.17
2019-01-04T06:37:55.616Z,19.20
2019-01-04T06:40:26.648Z,21.20
2019-01-04T06:42:57.652Z,20.03
2019-01-04T06:45:28.654Z,19.87
2019-01-04T06:47:59.632Z,18.90
2019-01-04T06:50:30.562Z,23.50
2019-01-04T06:53:01.623Z,17.80
2019-01-04T06:55:44.443Z,20.47
2019-01-04T06:58:15.345Z,21.23
2019-01-04T07:00:46.344Z,19.33
2019-01-04T07:03:17.415Z,21.60
2019-01-04T07:05:48.411Z,20.60
2019-01-04T07:08:24.647Z,21.23
2019-01-04T07:10:55.686Z,22.93
2019-01-04T07:13:26.680Z,21.03
2019-01-04T07:15:57.590Z,20.63
2019-01-04T07:18:28.512Z,20.83
2019-01-04T07:20:59.404Z,19.77
2019-01-04T07:23:30.385Z,19.60
2019-01-04T07:26:01.278Z,21.00
2019-01-04T07:28:34.467Z,17.60
2019-01-04T07:31:05.566Z,21.10
2019-01-04T07:33:36.611Z,22.23
2019-01-04T07:36:07.673Z,19.40
2019-01-04T07:38:38.586Z,21.43
2019-01-04T07:41:09.629Z,22.47
2019-01-04T07:43:40.590Z,20.23
2019-01-04T07:46:11.647Z,21.60
2019-01-04T07:48:45.053Z,18.83
2019-01-04T07:51:16.061Z,20.33
2019-01-04T07:53:47.021Z,19.77
2019-01-04T07:56:17.989Z,18.27
2019-01-04T07:58:49.032Z,18.90
2019-01-04T08:01:19.907Z,17.10
2019-01-04T08:03:50.807Z,17.30
2019-01-04T08:06:21.786Z,19.10
2019-01-04T08:09:01.877Z,16.07
2019-01-04T08:11:32.959Z,22.27
2019-01-04T08:14:04.055Z,18.43
2019-01-04T08:16:35.147Z,18.17
2019-01-04T08:19:06.133Z,18.33
2019-01-04T08:21:40.116Z,19.03
2019-01-04T08:24:11.151Z,20.00
2019-01-04T08:26:42.129Z,20.77
2019-01-04T08:29:13.349Z,20.10
2019-01-04T08:31:44.408Z,18.73
2019-01-04T08:34:15.275Z,18.13
2019-01-04T08:36:46.600Z,20.37
2019-01-04T08:39:18.740Z,18.13
2019-01-04T08:41:49.871Z,16.73
2019-01-04T08:44:20.823Z,19.80
2019-01-04T08:46:51.757Z,19.73
2019-01-04T08:49:23.631Z,21.43
2019-01-04T08:51:54.562Z,19.57
2019-01-04T08:54:25.472Z,16.50
2019-01-04T08:56:56.347Z,18.10
2019-01-04T08:59:28.705Z,17.80
2019-01-04T09:01:59.723Z,18.07
2019-01-04T09:04:30.714Z,18.50
2019-01-04T09:07:01.868Z,17.03
2019-01-04T09:09:32.948Z,17.93
2019-01-04T09:12:04.235Z,16.47
2019-01-04T09:14:35.308Z,19.73
2019-01-04T09:17:06.353Z,16.80
2019-01-04T09:19:37.605Z,16.83
2019-01-04T09:22:08.557Z,14.37
2019-01-04T09:24:39.445Z,16.57
2019-01-04T09:27:10.426Z,17.37
2019-01-04T09:29:41.395Z,15.53
2019-01-04T09:32:12.338Z,14.07
2019-01-04T09:34:43.292Z,15.37
2019-01-04T09:37:14.265Z,18.40
2019-01-04T09:39:51.892Z,17.43
2019-01-04T09:42:24.328Z,15.93
2019-01-04T09:44:55.295Z,15.43
2019-01-04T09:47:26.232Z,14.00
2019-01-04T09:49:57.179Z,15.60
2019-01-04T09:52:28.096Z,14.40
2019-01-04T09:54:59.031Z,12.37
2019-01-04T09:57:29.907Z,13.30
2019-01-04T10:00:00.918Z,15.30
2019-01-04T10:02:31.820Z,15.10
2019-01-04T10:05:02.853Z,13.83
2019-01-04T10:07:33.727Z,12.27
2019-01-04T10:10:07.510Z,11.43
2019-01-04T10:12:39.888Z,13.87
2019-01-04T10:15:13.473Z,14.90
2019-01-04T10:17:44.625Z,14.67
2019-01-04T10:20:15.569Z,15.53
2019-01-04T10:22:46.601Z,16.57
2019-01-04T10:25:17.554Z,16.37
2019-01-04T10:27:48.512Z,11.97
2019-01-04T10:30:25.632Z,15.13
2019-01-04T10:32:56.576Z,14.00
2019-01-04T10:35:27.457Z,12.70
2019-01-04T10:37:58.418Z,12.30
2019-01-04T10:40:29.374Z,13.63
2019-01-04T10:43:00.296Z,11.90
2019-01-04T10:45:31.574Z,14.53
2019-01-04T10:48:02.519Z,14.03
2019-01-04T10:50:33.570Z,11.17
2019-01-04T10:53:04.508Z,13.67
2019-01-04T10:55:35.483Z,13.60
2019-01-04T10:58:06.448Z,12.80
2019-01-04T11:00:37.518Z,10.53
2019-01-04T11:03:08.406Z,11.97
2019-01-04T11:05:39.418Z,10.83
2019-01-04T11:08:10.299Z,12.97
2019-01-04T11:10:41.422Z,11.67
2019-01-04T11:13:12.342Z,10.20
2019-01-04T11:15:43.227Z,15.80
2019-01-04T11:18:14.190Z,15.00
2019-01-04T11:20:45.469Z,12.93
2019-01-04T11:23:37.718Z,14.30
2019-01-04T11:26:14.334Z,14.20
2019-01-04T11:28:51.099Z,13.40
2019-01-04T11:31:28.006Z,11.47
2019-01-04T11:34:10.617Z,14.90
2019-01-04T11:36:44.848Z,12.53
2019-01-04T11:39:18.760Z,14.10
2019-01-04T11:42:01.566Z,11.50
2019-01-04T11:44:40.338Z,11.47
2019-01-04T11:47:26.414Z,10.77
2019-01-04T11:50:37.580Z,9.50
2019-01-04T11:53:11.728Z,9.63
2019-01-04T11:55:42.926Z,13.33
2019-01-04T11:58:13.896Z,11.37
2019-01-04T12:00:44.877Z,15.00
2019-01-04T12:03:15.874Z,13.87
2019-01-04T12:05:46.775Z,11.27
2019-01-04T12:08:17.687Z,11.43
2019-01-04T12:10:50.479Z,9.73
2019-01-04T12:13:21.425Z,14.73
2019-01-04T12:15:52.349Z,15.33
2019-01-04T12:18:23.324Z,13.27
2019-01-04T12:20:54.312Z,12.33
2019-01-04T12:23:25.410Z,9.87
2019-01-04T12:25:56.294Z,10.37
2019-01-04T12:28:27.193Z,12.30
2019-01-04T12:30:58.320Z,13.43
2019-01-04T12:33:30.812Z,15.80
2019-01-04T12:36:01.745Z,12.73
2019-01-04T12:38:33.073Z,11.20
2019-01-04T12:41:04.176Z,12.47
2019-01-04T12:43:35.060Z,12.10
2019-01-04T12:46:06.184Z,13.47
2019-01-04T12:48:40.334Z,11.47
2019-01-04T12:51:52.866Z,13.73
2019-01-04T12:54:24.055Z,11.20
2019-01-04T12:56:55.101Z,13.17
2019-01-04T12:59:26.179Z,11.70
2019-01-04T13:01:57.732Z,11.80
2019-01-04T13:04:28.751Z,16.07
2019-01-04T13:06:59.845Z,12.73
2019-01-04T13:09:30.991Z,11.70
2019-01-04T13:12:01.910Z,14.50
2019-01-04T13:14:32.919Z,11.47
2019-01-04T13:17:03.933Z,16.90
2019-01-04T13:19:35.211Z,16.73
2019-01-04T13:22:06.223Z,13.83
2019-01-04T13:24:37.244Z,11.63
2019-01-04T13:27:08.239Z,13.67
2019-01-04T13:29:39.122Z,15.70
2019-01-04T13:32:10.004Z,14.47
2019-01-04T13:34:40.963Z,14.70
2019-01-04T13:37:12.019Z,11.73
2019-01-04T13:39:42.969Z,13.90
2019-01-04T13:42:13.827Z,14.47
2019-01-04T13:44:44.931Z,21.90
2019-01-04T13:47:15.998Z,15.03
2019-01-04T13:49:46.876Z,14.47
2019-01-04T13:52:17.933Z,14.40
2019-01-04T13:54:48.820Z,16.83
2019-01-04T13:57:20.020Z,13.57
2019-01-04T13:59:50.927Z,14.17
2019-01-04T14:02:22.051Z,15.63
2019-01-04T14:04:52.997Z,11.50
2019-01-04T14:07:24.022Z,10.73
2019-01-04T14:09:56.711Z,13.10
2019-01-04T14:12:27.746Z,12.10
2019-01-04T14:14:58.804Z,13.33
2019-01-04T14:17:29.811Z,13.70
2019-01-04T14:20:00.837Z,15.90
2019-01-04T14:22:31.760Z,10.13
2019-01-04T14:25:02.849Z,12.90
2019-01-04T14:27:33.781Z,12.23
2019-01-04T14:30:07.264Z,12.53
2019-01-04T14:32:38.238Z,12.27
2019-01-04T14:35:10.826Z,14.80
2019-01-04T14:41:04.646Z,11.90
2019-01-04T14:53:12.700Z,13.23
2019-01-04T14:55:58.210Z,11.50
2019-01-04T14:58:38.675Z,10.53
2019-01-04T15:01:21.045Z,9.87
2019-01-04T15:04:21.086Z,11.17
2019-01-04T15:07:12.292Z,13.97
2019-01-04T15:09:54.959Z,13.23
2019-01-04T15:19:03.217Z,13.97
2019-01-04T15:24:55.179Z,16.10
2019-01-04T15:28:00.635Z,15.80
2019-01-04T15:30:59.216Z,15.50
2019-01-04T15:33:50.768Z,13.47
2019-01-04T15:36:34.392Z,14.90
2019-01-04T15:39:20.139Z,12.40
2019-01-04T15:45:11.229Z,16.33
2019-01-04T15:47:56.058Z,13.13
2019-01-04T15:50:44.627Z,10.93
2019-01-04T15:53:43.236Z,14.17
2019-01-04T15:56:18.629Z,13.00
2019-01-04T15:59:06.171Z,15.37
2019-01-04T16:01:49.533Z,15.27
2019-01-04T16:04:50.582Z,16.77
2019-01-04T16:07:35.240Z,14.17
2019-01-04T16:10:25.167Z,16.73
2019-01-04T16:13:09.855Z,14.33
2019-01-04T16:19:01.682Z,17.10
2019-01-04T16:21:32.579Z,17.07
2019-01-04T16:24:22.697Z,15.80
2019-01-04T16:26:53.606Z,18.80
2019-01-04T16:30:49.871Z,14.57
2019-01-04T16:36:41.655Z,18.20
2019-01-04T16:39:52.625Z,16.07
2019-01-04T16:42:26.143Z,18.43
2019-01-04T16:45:09.793Z,17.40
2019-01-04T16:47:44.056Z,18.93
2019-01-04T16:50:15.362Z,16.77
2019-01-04T16:52:46.366Z,20.50
2019-01-04T16:55:17.290Z,16.73
2019-01-04T16:57:48.326Z,17.63
2019-01-04T17:00:19.344Z,19.87
2019-01-04T17:02:50.369Z,18.90
2019-01-04T17:05:21.465Z,16.90
2019-01-04T17:07:52.470Z,18.87
2019-01-04T17:10:23.446Z,19.07
2019-01-04T17:12:54.349Z,20.53
2019-01-04T17:15:25.453Z,19.13
2019-01-04T17:17:56.489Z,20.33
2019-01-04T17:20:27.431Z,18.97
2019-01-04T17:22:58.482Z,18.30
2019-01-04T17:25:29.503Z,17.60
2019-01-04T17:28:00.571Z,22.67
2019-01-04T17:30:50.627Z,19.63
2019-01-04T17:33:40.813Z,18.17
2019-01-04T17:36:31.005Z,18.13
2019-01-04T17:39:01.941Z,18.90
2019-01-04T17:44:22.835Z,17.57
2019-01-04T17:46:53.906Z,20.13
2019-01-04T17:49:24.884Z,18.50
2019-01-04T17:52:15.069Z,19.90
2019-01-04T17:54:46.035Z,20.73
2019-01-04T17:57:17.074Z,20.00
2019-01-04T17:59:48.065Z,17.03
2019-01-04T18:02:19.283Z,18.17
2019-01-04T18:04:52.116Z,19.83
2019-01-04T18:07:42.211Z,15.73
2019-01-04T18:10:13.241Z,19.90
2019-01-04T18:12:44.224Z,19.10
2019-01-04T18:15:34.548Z,15.67
2019-01-04T18:18:05.614Z,15.40
2019-01-04T18:20:36.557Z,14.27
2019-01-04T18:23:07.523Z,16.87
2019-01-04T18:25:38.516Z,16.97
2019-01-04T18:28:28.656Z,15.03
2019-01-04T18:31:19.174Z,14.10
2019-01-04T18:34:29.897Z,14.73
2019-01-04T18:37:01.015Z,18.20
2019-01-04T18:39:32.016Z,16.40
2019-01-04T18:42:02.991Z,17.07
2019-01-04T18:44:34.096Z,14.53
2019-01-04T18:47:05.032Z,15.17
2019-01-04T18:49:55.135Z,16.20
2019-01-04T18:52:45.286Z,14.57
2019-01-04T18:55:35.448Z,15.20
2019-01-04T18:58:06.531Z,14.97
2019-01-04T19:00:37.419Z,15.30
2019-01-04T19:03:27.739Z,16.87
2019-01-04T19:06:18.007Z,16.77
2019-01-04T19:08:49.273Z,16.67
2019-01-04T19:11:39.384Z,17.00
2019-01-04T19:14:10.296Z,13.60
2019-01-04T19:19:50.554Z,15.77
2019-01-04T19:22:40.663Z,14.40
2019-01-04T19:25:30.961Z,13.03
2019-01-04T19:31:18.067Z,15.97
2019-01-04T19:33:49.036Z,13.87
2019-01-04T19:36:59.990Z,13.27
2019-01-04T19:39:30.927Z,12.10
2019-01-04T19:42:01.877Z,13.97
2019-01-04T19:44:32.774Z,12.90
2019-01-04T19:47:22.875Z,13.10
2019-01-04T19:49:53.882Z,13.90
2019-01-04T19:55:35.766Z,13.10
2019-01-04T19:58:46.713Z,16.60
2019-01-04T20:04:28.152Z,15.30
2019-01-04T20:08:15.954Z,13.97
2019-01-04T20:11:44.740Z,16.00
2019-01-04T20:15:13.352Z,14.87
2019-01-04T20:18:23.905Z,13.33
2019-01-04T20:21:13.964Z,14.90
2019-01-04T20:24:23.154Z,13.80
2019-01-04T20:27:17.460Z,13.33
2019-01-04T20:33:23.840Z,13.53
2019-01-04T20:36:13.998Z,17.00
2019-01-04T20:39:04.044Z,18.70
2019-01-04T20:41:54.091Z,18.23
2019-01-04T20:44:44.246Z,15.73
2019-01-04T20:47:36.066Z,15.93
2019-01-04T20:50:26.238Z,14.93
2019-01-04T20:53:35.651Z,16.73
2019-01-04T20:59:34.801Z,15.43
2019-01-04T21:02:44.841Z,15.20
2019-01-04T21:14:33.518Z,17.43
2019-01-04T21:24:32.489Z,14.63
2019-01-04T21:27:22.573Z,15.23
2019-01-04T21:30:33.461Z,12.53
2019-01-04T21:36:34.119Z,13.73
2019-01-04T21:39:45.469Z,14.60
2019-01-04T21:42:35.475Z,15.37
2019-01-04T21:52:35.758Z,15.53
2019-01-04T21:55:45.098Z,16.57
2019-01-04T22:01:51.023Z,16.10
2019-01-04T22:04:42.744Z,17.43
2019-01-04T22:07:52.295Z,15.37
2019-01-04T22:14:17.488Z,17.87
2019-01-04T22:17:09.569Z,18.60
2019-01-04T22:19:59.582Z,17.87
2019-01-04T22:26:25.100Z,17.03
2019-01-04T22:32:50.605Z,17.70
2019-01-04T22:38:22.676Z,16.20
2019-01-04T22:44:46.436Z,16.33
2019-01-04T22:47:36.494Z,15.37
2019-01-04T22:53:37.356Z,15.33
2019-01-04T22:56:27.460Z,13.60
2019-01-04T22:59:17.763Z,13.20
2019-01-04T23:02:07.935Z,13.30
2019-01-04T23:04:58.067Z,14.00
2019-01-04T23:07:49.845Z,15.57
2019-01-04T23:13:56.210Z,12.30
2019-01-04T23:16:46.417Z,12.97
2019-01-04T23:19:36.532Z,11.73
2019-01-04T23:22:47.347Z,11.93
2019-01-04T23:25:37.368Z,13.37
2019-01-04T23:28:46.688Z,11.87
2019-01-04T23:31:38.437Z,12.37
2019-01-04T23:34:28.544Z,12.77
2019-01-04T23:43:17.168Z,10.97
2019-01-04T23:46:09.041Z,11.80
2019-01-04T23:49:19.863Z,10.43
2019-01-04T23:52:10.004Z,11.30
2019-01-04T23:55:00.204Z,12.00
2019-01-04T23:57:50.352Z,11.40
